createdAt,value
2018-09-09T00:00:35.311Z,3.08
2018-09-09T00:03:04.199Z,3.12
2018-09-09T00:05:33.096Z,3.25
2018-09-09T00:08:01.993Z,3.80
2018-09-09T00:10:30.960Z,3.42
2018-09-09T00:12:59.826Z,3.15
2018-09-09T00:15:28.711Z,2.67
2018-09-09T00:17:57.569Z,3.15
2018-09-09T00:20:26.431Z,3.20
2018-09-09T00:22:55.322Z,3.20
2018-09-09T00:25:24.195Z,3.10
2018-09-09T00:27:53.072Z,3.67
2018-09-09T00:30:21.934Z,3.02
2018-09-09T00:32:50.814Z,3.40
2018-09-09T00:35:26.050Z,3.37
2018-09-09T00:37:54.923Z,3.15
2018-09-09T00:40:23.809Z,2.95
2018-09-09T00:42:52.718Z,3.12
2018-09-09T00:45:21.601Z,3.55
2018-09-09T00:47:50.474Z,3.25
2018-09-09T00:50:24.729Z,3.37
2018-09-09T00:55:21.290Z,3.40
2018-09-09T00:57:50.298Z,3.45
2018-09-09T01:00:25.102Z,3.60
2018-09-09T01:02:53.998Z,4.03
2018-09-09T01:05:22.867Z,3.20
2018-09-09T01:07:51.778Z,3.47
2018-09-09T01:10:20.642Z,3.83
2018-09-09T01:12:49.522Z,3.55
2018-09-09T01:15:18.405Z,3.98
2018-09-09T01:17:47.286Z,3.65
2018-09-09T01:20:16.372Z,3.50
2018-09-09T01:22:45.247Z,3.40
2018-09-09T01:25:14.122Z,4.15
2018-09-09T01:27:43.011Z,3.45
2018-09-09T01:30:11.986Z,3.65
2018-09-09T01:32:40.877Z,3.50
2018-09-09T01:35:09.748Z,3.65
2018-09-09T01:37:38.630Z,3.42
2018-09-09T01:40:07.498Z,3.80
2018-09-09T01:42:36.369Z,3.70
2018-09-09T01:45:05.406Z,4.62
2018-09-09T01:47:34.362Z,3.62
2018-09-09T01:50:03.359Z,3.80
2018-09-09T01:52:32.234Z,3.47
2018-09-09T01:55:01.222Z,3.90
2018-09-09T01:57:30.092Z,3.30
2018-09-09T01:59:58.958Z,3.30
2018-09-09T02:02:27.829Z,3.70
2018-09-09T02:04:56.703Z,3.30
2018-09-09T02:07:25.594Z,3.95
2018-09-09T02:09:54.455Z,3.70
2018-09-09T02:12:23.331Z,5.33
2018-09-09T02:14:52.185Z,3.22
2018-09-09T02:17:21.142Z,3.70
2018-09-09T02:19:50.006Z,3.33
2018-09-09T02:22:18.878Z,3.47
2018-09-09T02:24:47.740Z,3.45
2018-09-09T02:27:16.654Z,3.45
2018-09-09T02:29:45.541Z,2.92
2018-09-09T02:32:14.437Z,3.42
2018-09-09T02:34:43.318Z,3.75
2018-09-09T02:37:12.199Z,3.47
2018-09-09T02:39:41.184Z,3.35
2018-09-09T02:42:10.164Z,3.67
2018-09-09T02:44:39.027Z,3.47
2018-09-09T02:47:07.912Z,3.98
2018-09-09T02:49:36.796Z,3.87
2018-09-09T02:52:05.702Z,3.90
2018-09-09T02:54:34.570Z,4.10
2018-09-09T02:57:03.466Z,3.70
2018-09-09T02:59:32.350Z,4.22
2018-09-09T03:02:01.222Z,3.67
2018-09-09T03:04:30.086Z,3.45
2018-09-09T03:06:58.970Z,3.80
2018-09-09T03:09:27.843Z,3.27
2018-09-09T03:11:56.716Z,3.30
2018-09-09T03:14:25.579Z,3.70
2018-09-09T03:16:54.446Z,3.33
2018-09-09T03:19:23.317Z,3.33
2018-09-09T03:21:52.221Z,3.98
2018-09-09T03:24:21.138Z,3.90
2018-09-09T03:26:50.015Z,4.30
2018-09-09T03:29:18.882Z,3.80
2018-09-09T03:31:47.751Z,3.90
2018-09-09T03:34:16.631Z,3.50
2018-09-09T03:36:45.507Z,3.40
2018-09-09T03:39:14.422Z,3.90
2018-09-09T03:41:43.359Z,4.08
2018-09-09T03:44:12.242Z,3.65
2018-09-09T03:46:41.138Z,4.20
2018-09-09T03:49:10.018Z,3.08
2018-09-09T03:51:38.885Z,3.62
2018-09-09T03:54:07.757Z,3.05
2018-09-09T03:56:36.630Z,3.55
2018-09-09T03:59:05.555Z,3.65
2018-09-09T04:01:34.423Z,3.80
2018-09-09T04:04:03.311Z,3.65
2018-09-09T04:06:32.184Z,3.45
2018-09-09T04:09:01.080Z,3.37
2018-09-09T04:11:29.927Z,4.00
2018-09-09T04:13:58.806Z,3.80
2018-09-09T04:16:27.670Z,3.20
2018-09-09T04:18:56.557Z,3.30
2018-09-09T04:21:25.428Z,3.98
2018-09-09T04:23:54.291Z,3.67
2018-09-09T04:26:23.161Z,4.12
2018-09-09T04:28:52.039Z,3.58
2018-09-09T04:31:20.902Z,3.85
2018-09-09T04:33:49.785Z,4.12
2018-09-09T04:36:18.643Z,3.60
2018-09-09T04:38:47.533Z,3.33
2018-09-09T04:41:16.411Z,4.37
2018-09-09T04:43:45.302Z,4.05
2018-09-09T04:46:14.214Z,3.65
2018-09-09T04:48:43.050Z,3.60
2018-09-09T04:51:11.943Z,3.90
2018-09-09T04:53:40.830Z,3.20
2018-09-09T04:56:09.691Z,3.40
2018-09-09T04:58:38.584Z,3.05
2018-09-09T05:01:07.470Z,3.35
2018-09-09T05:03:36.354Z,3.20
2018-09-09T05:06:05.218Z,3.87
2018-09-09T05:08:34.090Z,3.33
2018-09-09T05:11:02.948Z,4.15
2018-09-09T05:13:31.825Z,4.00
2018-09-09T05:16:00.702Z,3.45
2018-09-09T05:18:29.607Z,3.75
2018-09-09T05:20:58.462Z,3.35
2018-09-09T05:23:27.384Z,3.80
2018-09-09T05:25:56.262Z,3.52
2018-09-09T05:28:25.147Z,4.15
2018-09-09T05:30:54.226Z,4.05
2018-09-09T05:33:23.114Z,3.70
2018-09-09T05:35:51.978Z,3.52
2018-09-09T05:38:20.854Z,3.50
2018-09-09T05:40:49.718Z,3.08
2018-09-09T05:43:18.597Z,3.10
2018-09-09T05:45:47.467Z,2.80
2018-09-09T05:48:16.467Z,3.42
2018-09-09T05:50:45.875Z,3.35
2018-09-09T05:53:14.755Z,3.70
2018-09-09T05:55:43.627Z,3.35
2018-09-09T05:58:12.514Z,3.85
2018-09-09T06:00:41.438Z,3.70
2018-09-09T06:03:10.311Z,3.35
2018-09-09T06:05:39.202Z,3.70
2018-09-09T06:08:08.209Z,4.10
2018-09-09T06:10:37.066Z,3.55
2018-09-09T06:13:06.014Z,4.22
2018-09-09T06:15:34.882Z,3.45
2018-09-09T06:18:03.750Z,3.35
2018-09-09T06:20:32.606Z,3.10
2018-09-09T06:23:01.481Z,3.42
2018-09-09T06:25:30.341Z,2.95
2018-09-09T06:27:59.222Z,3.77
2018-09-09T06:30:28.114Z,3.15
2018-09-09T06:32:56.999Z,3.10
2018-09-09T06:35:25.858Z,3.30
2018-09-09T06:37:54.735Z,3.10
2018-09-09T06:40:23.587Z,3.40
2018-09-09T06:42:52.463Z,3.33
2018-09-09T06:45:21.326Z,3.25
2018-09-09T06:47:50.214Z,3.60
2018-09-09T06:50:19.091Z,3.00
2018-09-09T06:52:47.959Z,2.85
2018-09-09T06:55:16.865Z,3.40
2018-09-09T06:57:45.709Z,3.30
2018-09-09T07:00:14.616Z,3.65
2018-09-09T07:02:43.499Z,3.45
2018-09-09T07:05:12.370Z,3.40
2018-09-09T07:07:41.269Z,3.75
2018-09-09T07:10:10.147Z,4.33
2018-09-09T07:12:39.034Z,3.55
2018-09-09T07:15:07.982Z,3.87
2018-09-09T07:17:36.871Z,3.85
2018-09-09T07:20:05.896Z,4.35
2018-09-09T07:22:34.803Z,3.83
2018-09-09T07:25:03.681Z,3.98
2018-09-09T07:27:32.606Z,3.85
2018-09-09T07:30:01.475Z,3.33
2018-09-09T07:32:30.339Z,4.03
2018-09-09T07:34:59.231Z,3.55
2018-09-09T07:37:28.213Z,3.75
2018-09-09T07:39:57.046Z,4.50
2018-09-09T07:42:25.974Z,3.40
2018-09-09T07:44:55.132Z,3.62
2018-09-09T07:47:24.089Z,4.08
2018-09-09T07:49:53.046Z,3.65
2018-09-09T07:52:21.918Z,3.62
2018-09-09T07:54:50.799Z,3.33
2018-09-09T07:57:19.678Z,3.80
2018-09-09T07:59:48.574Z,4.05
2018-09-09T08:02:17.451Z,3.72
2018-09-09T08:04:46.346Z,3.15
2018-09-09T08:07:15.242Z,3.85
2018-09-09T08:09:44.139Z,3.62
2018-09-09T08:12:13.099Z,4.37
2018-09-09T08:14:41.938Z,4.15
2018-09-09T08:17:10.828Z,4.50
2018-09-09T08:19:39.727Z,4.83
2018-09-09T08:22:08.632Z,4.05
2018-09-09T08:24:37.541Z,4.83
2018-09-09T08:27:06.410Z,4.37
2018-09-09T08:29:35.287Z,4.30
2018-09-09T08:32:04.157Z,4.60
2018-09-09T08:34:33.094Z,4.65
2018-09-09T08:37:02.075Z,4.42
2018-09-09T08:39:30.952Z,4.55
2018-09-09T08:41:59.829Z,4.10
2018-09-09T08:44:28.714Z,5.00
2018-09-09T08:46:57.594Z,4.95
2018-09-09T08:49:26.485Z,4.77
2018-09-09T08:51:55.404Z,5.25
2018-09-09T08:54:24.250Z,5.60
2018-09-09T08:56:53.119Z,5.28
2018-09-09T08:59:22.006Z,5.85
2018-09-09T09:01:50.884Z,5.40
2018-09-09T09:04:19.761Z,5.30
2018-09-09T09:06:48.629Z,6.33
2018-09-09T09:09:17.558Z,5.70
2018-09-09T09:11:46.438Z,5.70
2018-09-09T09:14:15.340Z,5.17
2018-09-09T09:16:44.208Z,4.53
2018-09-09T09:19:13.119Z,4.90
2018-09-09T09:21:42.026Z,4.97
2018-09-09T09:24:10.913Z,4.63
2018-09-09T09:26:39.782Z,5.17
2018-09-09T09:29:08.657Z,3.97
2018-09-09T09:31:37.506Z,4.10
2018-09-09T09:34:06.411Z,3.70
2018-09-09T09:36:35.302Z,3.10
2018-09-09T09:39:05.438Z,1.97
2018-09-09T09:41:34.315Z,3.17
2018-09-09T09:44:03.217Z,2.00
2018-09-09T09:46:34.132Z,1.80
2018-09-09T09:49:03.010Z,2.00
2018-09-09T09:51:31.869Z,1.87
2018-09-09T09:54:00.747Z,1.37
2018-09-09T09:56:29.618Z,2.00
2018-09-09T09:58:58.521Z,1.90
2018-09-09T10:01:27.398Z,1.83
2018-09-09T10:03:56.314Z,2.03
2018-09-09T10:06:25.181Z,1.70
2018-09-09T10:08:54.127Z,1.30
2018-09-09T10:11:22.977Z,1.83
2018-09-09T10:13:51.855Z,1.70
2018-09-09T10:16:20.719Z,1.70
2018-09-09T10:18:49.587Z,1.50
2018-09-09T10:21:18.456Z,1.70
2018-09-09T10:23:47.390Z,2.73
2018-09-09T10:26:16.207Z,1.70
2018-09-09T10:28:45.103Z,1.80
2018-09-09T10:31:13.994Z,1.60
2018-09-09T10:33:43.083Z,2.50
2018-09-09T10:36:11.970Z,1.30
2018-09-09T10:38:40.881Z,1.83
2018-09-09T10:41:09.743Z,1.90
2018-09-09T10:43:38.619Z,1.90
2018-09-09T10:46:07.580Z,1.57
2018-09-09T10:48:36.390Z,1.60
2018-09-09T10:51:05.503Z,1.40
2018-09-09T10:53:34.526Z,1.10
2018-09-09T10:56:03.406Z,1.80
2018-09-09T10:58:32.528Z,1.47
2018-09-09T11:01:01.389Z,1.50
2018-09-09T11:03:30.275Z,1.90
2018-09-09T11:06:03.995Z,1.60
2018-09-09T11:08:32.858Z,1.90
2018-09-09T11:11:01.739Z,1.80
2018-09-09T11:13:30.613Z,1.60
2018-09-09T11:15:59.490Z,1.67
2018-09-09T11:18:28.402Z,2.43
2018-09-09T11:20:57.296Z,1.80
2018-09-09T11:23:26.159Z,1.20
2018-09-09T11:25:55.038Z,1.53
2018-09-09T11:28:23.906Z,1.40
2018-09-09T11:30:52.798Z,1.80
2018-09-09T11:33:21.690Z,1.40
2018-09-09T11:35:50.591Z,1.57
2018-09-09T11:38:19.493Z,1.47
2018-09-09T11:40:48.557Z,1.50
2018-09-09T11:43:17.379Z,1.70
2018-09-09T11:45:46.298Z,1.60
2018-09-09T11:48:15.227Z,1.50
2018-09-09T11:50:44.133Z,1.90
2018-09-09T11:53:13.079Z,1.80
2018-09-09T11:55:41.998Z,1.63
2018-09-09T11:58:10.940Z,1.63
2018-09-09T12:00:39.830Z,1.50
2018-09-09T12:03:08.695Z,1.63
2018-09-09T12:05:37.573Z,1.20
2018-09-09T12:08:06.450Z,1.30
2018-09-09T12:10:35.330Z,1.50
2018-09-09T12:13:04.314Z,1.70
2018-09-09T12:15:33.194Z,1.70
2018-09-09T12:18:02.062Z,3.03
2018-09-09T12:20:30.952Z,1.57
2018-09-09T12:22:59.814Z,1.80
2018-09-09T12:25:28.686Z,2.00
2018-09-09T12:27:57.634Z,1.37
2018-09-09T12:30:26.519Z,1.50
2018-09-09T12:32:55.391Z,1.70
2018-09-09T12:35:24.262Z,1.13
2018-09-09T12:37:53.282Z,1.50
2018-09-09T12:40:22.070Z,1.87
2018-09-09T12:42:56.981Z,1.40
2018-09-09T12:45:31.195Z,1.30
2018-09-09T12:48:05.352Z,1.40
2018-09-09T12:50:34.227Z,2.67
2018-09-09T12:53:03.095Z,2.03
2018-09-09T12:55:31.971Z,1.53
2018-09-09T12:58:00.886Z,4.50
2018-09-09T13:00:29.825Z,2.90
2018-09-09T13:02:58.625Z,1.30
2018-09-09T13:05:27.502Z,1.57
2018-09-09T13:07:56.370Z,1.67
2018-09-09T13:10:25.250Z,1.23
2018-09-09T13:12:59.418Z,5.20
2018-09-09T13:15:28.296Z,2.33
2018-09-09T13:17:57.546Z,1.23
2018-09-09T13:20:26.451Z,1.20
2018-09-09T13:22:55.293Z,1.20
2018-09-09T13:25:24.214Z,1.23
2018-09-09T13:27:53.091Z,1.30
2018-09-09T13:30:22.003Z,1.63
2018-09-09T13:32:50.906Z,2.40
2018-09-09T13:35:19.834Z,1.10
2018-09-09T13:37:48.710Z,1.10
2018-09-09T13:40:17.606Z,0.90
2018-09-09T13:42:46.489Z,1.03
2018-09-09T13:45:15.422Z,1.37
2018-09-09T13:47:44.627Z,9.90
2018-09-09T13:50:13.742Z,1.83
2018-09-09T13:52:42.654Z,1.60
2018-09-09T13:55:11.567Z,1.00
2018-09-09T13:57:40.747Z,1.20
2018-09-09T14:00:09.728Z,1.83
2018-09-09T14:02:38.609Z,1.10
2018-09-09T14:05:07.490Z,0.90
2018-09-09T14:07:36.362Z,1.00
2018-09-09T14:10:05.550Z,1.33
2018-09-09T14:12:34.410Z,0.93
2018-09-09T14:15:03.332Z,1.40
2018-09-09T14:17:32.194Z,0.90
2018-09-09T14:20:01.066Z,1.27
2018-09-09T14:22:29.971Z,1.00
2018-09-09T14:24:58.831Z,1.80
2018-09-09T14:27:27.699Z,1.60
2018-09-09T14:29:56.592Z,1.40
2018-09-09T14:32:25.455Z,1.50
2018-09-09T14:34:54.358Z,0.90
2018-09-09T14:37:23.230Z,1.07
2018-09-09T14:39:52.112Z,1.67
2018-09-09T14:42:21.013Z,1.30
2018-09-09T14:44:49.898Z,1.00
2018-09-09T14:47:18.779Z,1.20
2018-09-09T14:49:47.727Z,1.10
2018-09-09T14:52:16.594Z,1.20
2018-09-09T14:54:45.483Z,1.50
2018-09-09T14:57:14.370Z,1.00
2018-09-09T14:59:43.339Z,1.20
2018-09-09T15:02:12.311Z,0.97
2018-09-09T15:04:41.255Z,1.10
2018-09-09T15:07:10.149Z,1.50
2018-09-09T15:09:39.051Z,1.30
2018-09-09T15:12:07.915Z,1.10
2018-09-09T15:14:36.798Z,1.30
2018-09-09T15:17:06.058Z,1.53
2018-09-09T15:19:34.949Z,1.33
2018-09-09T15:22:03.854Z,1.10
2018-09-09T15:24:32.731Z,0.93
2018-09-09T15:27:01.598Z,1.20
2018-09-09T15:29:30.479Z,1.87
2018-09-09T15:31:59.339Z,1.20
2018-09-09T15:34:28.223Z,1.20
2018-09-09T15:36:57.099Z,1.60
2018-09-09T15:39:26.027Z,1.10
2018-09-09T15:41:54.916Z,1.30
2018-09-09T15:44:23.785Z,1.20
2018-09-09T15:46:52.671Z,1.47
2018-09-09T15:49:21.534Z,1.37
2018-09-09T15:51:50.601Z,1.20
2018-09-09T15:54:19.477Z,1.20
2018-09-09T15:56:48.345Z,1.30
2018-09-09T15:59:17.330Z,1.10
2018-09-09T16:01:48.919Z,1.27
2018-09-09T16:04:17.771Z,1.20
2018-09-09T16:06:46.652Z,0.90
2018-09-09T16:09:15.551Z,1.07
2018-09-09T16:11:44.467Z,1.20
2018-09-09T16:14:13.327Z,1.30
2018-09-09T16:16:42.302Z,1.10
2018-09-09T16:19:11.257Z,1.17
2018-09-09T16:21:40.135Z,1.53
2018-09-09T16:24:09.127Z,1.67
2018-09-09T16:26:38.015Z,0.93
2018-09-09T16:29:07.006Z,1.20
2018-09-09T16:31:35.935Z,1.00
2018-09-09T16:34:04.798Z,1.00
2018-09-09T16:36:33.686Z,1.30
2018-09-09T16:39:02.570Z,1.00
2018-09-09T16:41:31.454Z,1.43
2018-09-09T16:44:00.330Z,1.30
2018-09-09T16:46:29.206Z,1.20
2018-09-09T16:48:58.067Z,1.40
2018-09-09T16:51:26.942Z,1.20
2018-09-09T16:53:55.811Z,1.40
2018-09-09T16:56:24.682Z,1.20
2018-09-09T16:58:53.676Z,1.33
2018-09-09T17:01:22.574Z,1.47
2018-09-09T17:03:51.454Z,1.33
2018-09-09T17:06:20.352Z,1.37
2018-09-09T17:08:49.255Z,1.10
2018-09-09T17:11:18.170Z,1.27
2018-09-09T17:13:47.031Z,1.00
2018-09-09T17:16:16.055Z,1.00
2018-09-09T17:18:44.951Z,1.40
2018-09-09T17:21:13.850Z,1.47
2018-09-09T17:23:42.767Z,1.37
2018-09-09T17:26:12.979Z,1.60
2018-09-09T17:28:41.878Z,2.00
2018-09-09T17:31:10.786Z,1.40
2018-09-09T17:33:39.649Z,1.67
2018-09-09T17:36:08.651Z,1.33
2018-09-09T17:38:37.514Z,1.40
2018-09-09T17:41:06.486Z,1.70
2018-09-09T17:43:35.458Z,1.80
2018-09-09T17:46:04.393Z,2.13
2018-09-09T17:48:33.374Z,2.10
2018-09-09T17:51:03.330Z,1.97
2018-09-09T17:53:32.339Z,1.87
2018-09-09T17:56:01.333Z,1.95
2018-09-09T17:58:30.222Z,3.20
2018-09-09T18:00:59.129Z,1.75
2018-09-09T18:03:28.031Z,1.87
2018-09-09T18:05:57.011Z,1.72
2018-09-09T18:08:25.999Z,2.00
2018-09-09T18:10:55.048Z,1.60
2018-09-09T18:13:24.051Z,2.17
2018-09-09T18:15:52.957Z,1.47
2018-09-09T18:18:22.075Z,1.80
2018-09-09T18:20:51.028Z,1.80
2018-09-09T18:23:19.826Z,1.80
2018-09-09T18:25:48.722Z,1.80
2018-09-09T18:28:17.594Z,1.90
2018-09-09T18:30:46.517Z,1.80
2018-09-09T18:33:15.503Z,1.92
2018-09-09T18:35:45.051Z,1.70
2018-09-09T18:38:14.039Z,2.22
2018-09-09T18:40:42.966Z,2.60
2018-09-09T18:43:12.282Z,2.45
2018-09-09T18:45:41.464Z,2.67
2018-09-09T18:48:10.635Z,2.27
2018-09-09T18:50:39.618Z,2.35
2018-09-09T18:53:08.591Z,2.70
2018-09-09T18:55:37.582Z,3.05
2018-09-09T18:58:06.611Z,2.70
2018-09-09T19:00:35.516Z,2.30
2018-09-09T19:03:04.414Z,2.52
2018-09-09T19:05:33.299Z,2.20
2018-09-09T19:08:02.174Z,2.42
2018-09-09T19:10:31.085Z,2.13
2018-09-09T19:13:03.717Z,2.05
2018-09-09T19:15:32.582Z,2.47
2018-09-09T19:18:02.531Z,2.05
2018-09-09T19:20:31.446Z,2.42
2018-09-09T19:23:00.339Z,2.30
2018-09-09T19:25:29.243Z,2.67
2018-09-09T19:27:58.134Z,2.50
2018-09-09T19:30:27.043Z,2.60
2018-09-09T19:32:56.085Z,3.50
2018-09-09T19:35:24.950Z,2.33
2018-09-09T19:37:53.827Z,2.42
2018-09-09T19:40:22.698Z,2.50
2018-09-09T19:42:51.580Z,2.50
2018-09-09T19:45:20.459Z,2.27
2018-09-09T19:47:49.394Z,2.67
2018-09-09T19:50:18.344Z,2.00
2018-09-09T19:52:47.246Z,2.58
2018-09-09T19:55:16.178Z,2.37
2018-09-09T19:57:45.137Z,2.72
2018-09-09T20:00:14.026Z,2.12
2018-09-09T20:02:42.956Z,2.02
2018-09-09T20:05:11.845Z,2.30
2018-09-09T20:07:40.782Z,2.40
2018-09-09T20:10:09.666Z,2.10
2018-09-09T20:12:38.550Z,2.25
2018-09-09T20:15:07.509Z,2.00
2018-09-09T20:17:36.342Z,2.27
2018-09-09T20:20:05.749Z,2.30
2018-09-09T20:22:34.626Z,2.70
2018-09-09T20:25:03.542Z,2.70
2018-09-09T20:27:32.693Z,2.65
2018-09-09T20:30:01.683Z,2.77
2018-09-09T20:32:30.698Z,2.58
2018-09-09T20:34:59.549Z,2.75
2018-09-09T20:37:28.439Z,6.12
2018-09-09T20:39:57.361Z,3.00
2018-09-09T20:42:26.246Z,3.02
2018-09-09T20:44:55.115Z,2.52
2018-09-09T20:47:24.014Z,3.05
2018-09-09T20:49:52.890Z,2.80
2018-09-09T20:52:22.847Z,2.95
2018-09-09T20:54:51.722Z,2.37
2018-09-09T20:57:20.598Z,3.00
2018-09-09T20:59:49.478Z,3.05
2018-09-09T21:02:18.385Z,2.58
2018-09-09T21:04:47.362Z,3.10
2018-09-09T21:07:16.246Z,2.67
2018-09-09T21:09:45.143Z,3.30
2018-09-09T21:12:14.055Z,3.02
2018-09-09T21:14:42.947Z,2.80
2018-09-09T21:17:11.850Z,3.15
2018-09-09T21:19:40.726Z,2.95
2018-09-09T21:22:09.614Z,2.93
2018-09-09T21:24:38.486Z,2.83
2018-09-09T21:27:07.512Z,3.00
2018-09-09T21:29:36.374Z,3.17
2018-09-09T21:32:05.262Z,3.87
2018-09-09T21:34:34.130Z,3.00
2018-09-09T21:37:03.080Z,3.08
2018-09-09T21:39:31.943Z,2.80
2018-09-09T21:42:00.835Z,3.10
2018-09-09T21:44:29.690Z,3.20
2018-09-09T21:46:58.569Z,4.40
2018-09-09T21:49:27.433Z,3.20
2018-09-09T21:51:56.314Z,3.60
2018-09-09T21:54:25.211Z,4.47
2018-09-09T21:56:54.094Z,3.30
2018-09-09T21:59:22.958Z,2.60
2018-09-09T22:01:57.258Z,2.60
2018-09-09T22:04:26.123Z,2.85
2018-09-09T22:06:54.998Z,3.35
2018-09-09T22:09:23.863Z,2.98
2018-09-09T22:11:52.745Z,3.33
2018-09-09T22:14:21.690Z,3.37
2018-09-09T22:16:50.597Z,2.80
2018-09-09T22:19:19.502Z,3.50
2018-09-09T22:21:49.416Z,3.00
2018-09-09T22:24:19.962Z,2.85
2018-09-09T22:26:49.190Z,3.02
2018-09-09T22:29:18.087Z,3.05
2018-09-09T22:31:47.016Z,2.77
2018-09-09T22:34:16.199Z,3.08
2018-09-09T22:36:45.302Z,2.85
2018-09-09T22:39:14.306Z,3.17
2018-09-09T22:41:43.197Z,3.10
2018-09-09T22:44:12.850Z,2.98
2018-09-09T22:46:42.488Z,3.02
2018-09-09T22:49:11.390Z,2.70
2018-09-09T22:51:40.278Z,3.00
2018-09-09T22:54:09.143Z,3.08
2018-09-09T22:56:38.047Z,3.10
2018-09-09T22:59:06.930Z,3.20
2018-09-09T23:01:35.837Z,3.02
2018-09-09T23:04:04.734Z,3.10
2018-09-09T23:06:33.602Z,3.00
2018-09-09T23:09:02.537Z,3.83
2018-09-09T23:11:31.410Z,2.87
2018-09-09T23:14:00.273Z,4.80
2018-09-09T23:16:29.150Z,3.17
2018-09-09T23:18:58.031Z,3.40
2018-09-09T23:21:27.030Z,2.75
2018-09-09T23:23:55.894Z,3.60
2018-09-09T23:26:24.786Z,2.98
2018-09-09T23:28:53.649Z,3.08
2018-09-09T23:31:22.545Z,2.90
2018-09-09T23:33:51.438Z,2.98
2018-09-09T23:36:20.327Z,3.20
2018-09-09T23:38:49.195Z,3.37
2018-09-09T23:41:18.079Z,3.42
2018-09-09T23:43:47.006Z,2.85
2018-09-09T23:46:15.901Z,2.92
2018-09-09T23:48:44.811Z,3.00
2018-09-09T23:51:13.719Z,2.62
2018-09-09T23:53:42.601Z,4.12
2018-09-09T23:56:11.507Z,3.20
2018-09-09T23:58:40.407Z,2.65
